< < Back
Terminal Aerodrome Forecast


Current Version              Previous Versions:   1  2  3  4  5  6  7  8  9  

Terminal Aerodrome Forecast

732
FTUS42 KTAE 300520
TAFTLH
TAF
KTLH 300520Z 3006/3106 26003KT P6SM SKC
     FM301400 29004KT P6SM SCT040
     FM301900 21009KT P6SM VCTS SCT050CB
     FM310000 22005KT P6SM FEW050 BKN250=

Latest METAR

312
SAUS80 KWBC 302200 RRB
MTRTLH
METAR KTLH 302153Z 20008KT 10SM FEW050 FEW150 BKN250 31/23 A3000 RMK AO2
SLP157 CB DSNT E AND NW T03060233 $


USA.gov is the U.S. government's official web portal to all federal, state and local government web resources and services.